Time;durP1;ratioP1;P1;durP2;ratioP2;P2;SDS_P1;SDS_P2;PMS_P1;PMS_P2;Temp;Humidity;BMP_temperature;BMP_pressure;BME280_temperature;BME280_humidity;BME280_pressure;Samples;Min_cycle;Max_cycle;Signal;HPM_P1;HPM_P2
2023/02/11 00:00:52;;;;;;;2.85;1.02;;;6.60;99.90;;;;;;5054633;28;20076;-69
2023/02/11 00:03:18;;;;;;;8.88;0.52;;;6.70;99.90;;;;;;5054401;28;20078;-69
2023/02/11 00:05:43;;;;;;;4.50;1.25;;;6.70;99.90;;;;;;5054344;28;20017;-69
2023/02/11 00:08:09;;;;;;;1.05;1.05;;;6.70;99.90;;;;;;5054448;28;20021;-69
2023/02/11 00:10:34;;;;;;;3.60;1.10;;;6.70;99.90;;;;;;5054906;28;20017;-69
2023/02/11 00:13:00;;;;;;;0.30;0.30;;;6.70;99.90;;;;;;5054249;28;20040;-69
2023/02/11 00:15:25;;;;;;;2.45;2.15;;;6.70;99.90;;;;;;5054187;28;20114;-68
2023/02/11 00:17:51;;;;;;;16.35;4.13;;;6.60;99.90;;;;;;5054069;28;20159;-69
2023/02/11 00:20:17;;;;;;;1.55;1.45;;;6.70;99.90;;;;;;5054081;28;20052;-69
2023/02/11 00:22:42;;;;;;;2.00;0.93;;;6.70;99.90;;;;;;5053927;28;20052;-69
2023/02/11 00:25:08;;;;;;;14.77;6.18;;;6.70;99.90;;;;;;5054528;28;20382;-69
2023/02/11 00:27:35;;;;;;;0.20;0.20;;;6.70;99.90;;;;;;5054114;28;20099;-69
2023/02/11 00:30:01;;;;;;;11.38;1.10;;;6.70;99.90;;;;;;5053612;28;20103;-69
2023/02/11 00:32:27;;;;;;;0.40;0.30;;;6.70;99.90;;;;;;5054017;28;20151;-69
2023/02/11 00:34:54;;;;;;;4.70;1.13;;;6.70;99.90;;;;;;5053707;28;20520;-69
2023/02/11 00:37:20;;;;;;;11.20;3.38;;;6.80;99.90;;;;;;5054398;28;20043;-69
2023/02/11 00:39:45;;;;;;;33.47;2.55;;;6.80;99.90;;;;;;5053835;28;20029;-69
2023/02/11 00:42:13;;;;;;;0.22;0.22;;;6.80;99.90;;;;;;5053700;28;20027;-69
2023/02/11 00:44:39;;;;;;;30.38;1.75;;;6.80;99.90;;;;;;5053669;28;20040;-69
2023/02/11 00:47:04;;;;;;;23.27;2.45;;;6.90;99.90;;;;;;5053845;28;20025;-69
2023/02/11 00:49:30;;;;;;;3.03;0.60;;;6.90;99.90;;;;;;5053141;28;20079;-69
2023/02/11 00:51:56;;;;;;;13.45;1.90;;;6.90;99.90;;;;;;5053492;28;20111;-69
2023/02/11 00:54:21;;;;;;;0.32;0.32;;;6.90;99.90;;;;;;5053794;28;20033;-69
2023/02/11 00:56:47;;;;;;;8.68;2.30;;;6.90;99.90;;;;;;5053481;28;20021;-69
2023/02/11 00:59:12;;;;;;;6.97;2.10;;;6.90;99.90;;;;;;5053525;28;20025;-69
2023/02/11 01:01:38;;;;;;;0.90;0.55;;;6.90;99.90;;;;;;5053357;28;20479;-69
2023/02/11 01:04:04;;;;;;;12.57;1.27;;;6.90;99.90;;;;;;5053736;28;20382;-69
2023/02/11 01:06:30;;;;;;;14.70;3.53;;;6.90;99.90;;;;;;5053211;28;20025;-69
2023/02/11 01:08:55;;;;;;;3.10;1.13;;;6.90;99.90;;;;;;5053531;28;20033;-69
2023/02/11 01:11:21;;;;;;;0.82;0.77;;;6.90;99.90;;;;;;5053065;28;20029;-69
2023/02/11 01:13:48;;;;;;;7.35;1.70;;;6.90;99.90;;;;;;5053311;28;20489;-69
2023/02/11 01:16:14;;;;;;;17.25;4.68;;;6.90;99.90;;;;;;5053144;28;20382;-69
2023/02/11 01:18:43;;;;;;;8.20;1.88;;;6.80;99.90;;;;;;5053300;28;20025;-69
2023/02/11 01:21:08;;;;;;;12.60;1.77;;;6.80;99.90;;;;;;5053163;28;20024;-69
2023/02/11 01:23:34;;;;;;;1.55;1.25;;;6.80;99.90;;;;;;5052948;28;20047;-69
2023/02/11 01:26:00;;;;;;;3.85;3.63;;;6.80;99.90;;;;;;5053109;28;20021;-69
2023/02/11 01:28:28;;;;;;;0.20;0.20;;;6.80;99.90;;;;;;5053009;28;20108;-69
2023/02/11 01:30:54;;;;;;;4.40;1.55;;;6.70;99.90;;;;;;5053591;28;20530;-69
2023/02/11 01:33:21;;;;;;;0.20;0.20;;;6.80;99.90;;;;;;5052708;28;20057;-69
2023/02/11 01:35:46;;;;;;;15.38;1.50;;;6.80;99.90;;;;;;5053093;28;20428;-69
2023/02/11 01:38:18;;;;;;;3.05;2.30;;;6.70;99.90;;;;;;5052645;28;20028;-69
2023/02/11 01:41:14;;;;;;;6.15;1.63;;;6.80;99.90;;;;;;5053004;28;20078;-69
2023/02/11 01:43:45;;;;;;;4.13;0.85;;;6.80;99.90;;;;;;5051030;28;20037;-69
2023/02/11 01:46:31;;;;;;;19.33;1.55;;;6.70;99.90;;;;;;5052998;28;20068;-69
2023/02/11 01:49:03;;;;;;;2.92;0.88;;;6.80;99.90;;;;;;5052888;28;20025;-69
2023/02/11 01:51:36;;;;;;;16.98;2.83;;;6.70;99.90;;;;;;5052930;28;20029;-69
2023/02/11 02:00:02;;;;;;;1.38;0.98;;;6.80;99.90;;;;;;5052931;28;20028;-70
2023/02/11 02:02:48;;;;;;;3.83;1.30;;;6.70;99.90;;;;;;5052674;28;20024;-70
2023/02/11 02:05:18;;;;;;;1.00;0.63;;;6.80;99.90;;;;;;5049257;28;20108;-70
2023/02/11 02:07:55;;;;;;;0.10;0.10;;;6.80;99.90;;;;;;5056786;28;20028;-70
2023/02/11 02:10:24;;;;;;;15.82;2.03;;;6.80;99.90;;;;;;5056929;28;20079;-70
2023/02/11 02:12:50;;;;;;;7.93;1.48;;;6.80;99.90;;;;;;5056072;28;20053;-70
2023/02/11 02:15:27;;;;;;;0.10;0.10;;;6.80;99.90;;;;;;5056383;28;20498;-69
2023/02/11 02:18:11;;;;;;;7.22;1.48;;;6.80;99.90;;;;;;5056585;28;20474;-69
2023/02/11 02:21:03;;;;;;;2.72;1.45;;;6.80;99.90;;;;;;5056308;28;20479;-69
2023/02/11 02:23:43;;;;;;;10.95;3.05;;;6.80;99.90;;;;;;5056614;28;20017;-69
2023/02/11 02:26:18;;;;;;;3.83;0.73;;;6.80;99.90;;;;;;5056511;28;20048;-69
2023/02/11 02:29:04;;;;;;;2.80;1.38;;;6.70;99.90;;;;;;5056143;28;20474;-69
2023/02/11 02:31:53;;;;;;;1.73;0.82;;;6.70;99.90;;;;;;5055863;28;20041;-68
2023/02/11 02:34:36;;;;;;;0.60;0.30;;;6.80;99.90;;;;;;5056357;28;20364;-69
2023/02/11 02:37:08;;;;;;;1.48;1.38;;;6.80;99.90;;;;;;5056362;28;20136;-69
2023/02/11 02:39:35;;;;;;;2.00;0.93;;;6.80;99.90;;;;;;5056222;28;20039;-69
2023/02/11 02:42:02;;;;;;;0.30;0.30;;;6.80;99.90;;;;;;5056187;28;20371;-69
2023/02/11 02:44:28;;;;;;;4.22;1.23;;;6.80;99.90;;;;;;5056024;28;20025;-69
2023/02/11 02:46:54;;;;;;;0.40;0.40;;;6.80;99.90;;;;;;5055828;28;20029;-70
2023/02/11 02:49:19;;;;;;;2.30;1.95;;;6.80;99.90;;;;;;5056270;28;20078;-69
2023/02/11 02:52:17;;;;;;;1.75;1.02;;;6.80;99.90;;;;;;5055292;28;20040;-70
2023/02/11 02:54:50;;;;;;;2.40;1.35;;;6.90;99.90;;;;;;5014275;28;20034;-69
2023/02/11 02:57:31;;;;;;;0.40;0.40;;;6.90;99.90;;;;;;5021969;28;20489;-69
2023/02/11 03:00:08;;;;;;;7.20;2.60;;;6.90;99.90;;;;;;5056593;28;20033;-69
2023/02/11 03:02:46;;;;;;;11.27;1.60;;;6.90;99.90;;;;;;5055978;28;20021;-69
2023/02/11 03:05:35;;;;;;;4.07;0.82;;;6.90;99.90;;;;;;5056267;28;20105;-69
2023/02/11 03:08:10;;;;;;;10.40;3.58;;;6.80;99.90;;;;;;5055838;28;20021;-69
2023/02/11 03:10:48;;;;;;;0.60;0.47;;;6.90;99.90;;;;;;5055374;28;20061;-69
2023/02/11 03:13:16;;;;;;;17.67;2.20;;;6.90;99.90;;;;;;5055452;28;20033;-69
2023/02/11 03:15:45;;;;;;;5.55;1.83;;;6.90;99.90;;;;;;5053846;28;20550;-69
2023/02/11 03:18:14;;;;;;;1.17;0.90;;;6.80;99.90;;;;;;5055535;28;20112;-69
2023/02/11 03:20:42;;;;;;;9.05;0.57;;;6.90;99.90;;;;;;5055326;28;20032;-69
2023/02/11 03:23:34;;;;;;;14.13;2.75;;;6.90;99.90;;;;;;5055414;28;20112;-69
2023/02/11 03:26:12;;;;;;;0.22;0.22;;;6.80;99.90;;;;;;5049684;28;20033;-69
2023/02/11 03:28:44;;;;;;;0.10;0.10;;;6.90;99.90;;;;;;5055416;28;20021;-69
2023/02/11 03:31:18;;;;;;;0.10;0.10;;;6.80;99.90;;;;;;5055368;28;20025;-69
2023/02/11 03:34:07;;;;;;;0.10;0.10;;;6.80;99.90;;;;;;5055225;28;20112;-69
2023/02/11 03:36:44;;;;;;;0.20;0.20;;;6.80;99.90;;;;;;5055183;28;20028;-69
2023/02/11 03:39:14;;;;;;;0.50;0.50;;;6.80;99.90;;;;;;5055025;28;20028;-70
2023/02/11 03:41:42;;;;;;;19.38;1.85;;;6.80;99.90;;;;;;5054924;28;20013;-70
2023/02/11 03:44:12;;;;;;;0.10;0.10;;;6.80;99.90;;;;;;5054788;28;20028;-70
2023/02/11 03:46:39;;;;;;;0.20;0.20;;;6.80;99.90;;;;;;5054923;28;20482;-69
2023/02/11 03:49:10;;;;;;;4.38;1.17;;;6.80;99.90;;;;;;5054675;28;20025;-69
2023/02/11 03:51:37;;;;;;;3.85;0.75;;;6.80;99.90;;;;;;5054905;28;20502;-69
2023/02/11 03:54:08;;;;;;;18.92;2.65;;;6.80;99.90;;;;;;5054701;28;20029;-69
2023/02/11 03:56:40;;;;;;;0.20;0.20;;;6.80;99.90;;;;;;5055214;28;20382;-69
2023/02/11 03:59:07;;;;;;;0.90;0.90;;;6.80;99.90;;;;;;5054784;28;20057;-70
2023/02/11 04:01:32;;;;;;;0.93;0.73;;;6.80;99.90;;;;;;5054451;28;20059;-69
2023/02/11 04:03:58;;;;;;;25.30;3.70;;;6.80;99.90;;;;;;5054564;28;20394;-69
2023/02/11 04:06:23;;;;;;;1.20;0.85;;;6.80;99.90;;;;;;5053262;28;20082;-69
2023/02/11 04:08:49;;;;;;;0.70;0.68;;;6.80;99.90;;;;;;5054495;28;20395;-69
2023/02/11 04:11:14;;;;;;;26.10;1.75;;;6.90;99.90;;;;;;5054149;28;20029;-70
2023/02/11 04:13:40;;;;;;;6.35;1.20;;;6.90;99.90;;;;;;5054544;28;20460;-70
2023/02/11 04:16:06;;;;;;;1.45;0.63;;;6.90;99.90;;;;;;5054128;28;20495;-70
2023/02/11 04:18:31;;;;;;;0.70;0.63;;;6.90;99.90;;;;;;5054569;28;20021;-70
2023/02/11 04:20:57;;;;;;;0.55;0.20;;;6.90;99.90;;;;;;5053753;28;20033;-70
2023/02/11 04:23:22;;;;;;;0.20;0.20;;;6.90;99.90;;;;;;5054299;28;20130;-70
2023/02/11 04:25:49;;;;;;;1.85;0.73;;;6.90;99.90;;;;;;5053765;28;20074;-70
2023/02/11 04:28:14;;;;;;;12.80;1.73;;;7.00;99.90;;;;;;5054112;28;20053;-69
2023/02/11 04:30:40;;;;;;;1.10;1.08;;;7.00;99.90;;;;;;5054275;28;20552;-69
2023/02/11 04:33:05;;;;;;;4.10;1.95;;;7.00;99.90;;;;;;5053830;28;20052;-69
2023/02/11 04:35:31;;;;;;;5.72;1.42;;;7.00;99.90;;;;;;5053871;28;20029;-69
2023/02/11 04:37:56;;;;;;;4.80;0.77;;;7.10;99.90;;;;;;5053767;28;20021;-69
2023/02/11 04:40:22;;;;;;;0.20;0.20;;;7.00;99.90;;;;;;5053902;28;20143;-69
2023/02/11 04:42:47;;;;;;;0.63;0.63;;;7.00;99.90;;;;;;5053839;28;20479;-69
2023/02/11 04:45:13;;;;;;;0.30;0.30;;;7.00;99.90;;;;;;5053632;28;20418;-69
2023/02/11 04:47:38;;;;;;;0.80;0.80;;;7.00;99.90;;;;;;5053688;28;20021;-69
2023/02/11 04:50:04;;;;;;;4.22;1.52;;;7.00;99.90;;;;;;5053678;28;20465;-69
2023/02/11 04:52:30;;;;;;;24.20;14.93;;;7.00;99.90;;;;;;5053749;28;20475;-69
2023/02/11 04:54:55;;;;;;;0.20;0.20;;;7.00;99.90;;;;;;5053473;28;20036;-69
2023/02/11 04:57:21;;;;;;;0.85;0.43;;;6.90;99.90;;;;;;5053221;28;20032;-69
2023/02/11 04:59:47;;;;;;;3.60;0.73;;;6.90;99.90;;;;;;5053684;28;20048;-69
2023/02/11 05:02:13;;;;;;;18.13;2.42;;;6.90;99.90;;;;;;5053440;28;20044;-69
2023/02/11 05:04:38;;;;;;;2.00;1.50;;;6.90;99.90;;;;;;5053652;28;20032;-69
2023/02/11 05:07:04;;;;;;;18.55;5.10;;;6.90;99.90;;;;;;5053399;28;20025;-69
2023/02/11 05:09:29;;;;;;;8.07;1.15;;;6.90;99.90;;;;;;5053484;28;20112;-70
2023/02/11 05:11:55;;;;;;;14.85;4.40;;;6.90;99.90;;;;;;5052920;28;20068;-70
2023/02/11 05:14:20;;;;;;;8.77;0.98;;;6.90;99.90;;;;;;5053657;28;20078;-70
2023/02/11 05:16:46;;;;;;;0.10;0.10;;;6.80;99.90;;;;;;5053141;28;20509;-70
2023/02/11 05:19:12;;;;;;;1.17;0.88;;;6.90;99.90;;;;;;5053354;28;20024;-69
2023/02/11 05:21:37;;;;;;;0.70;0.70;;;6.90;99.90;;;;;;5094237;22;20052;-73
2023/02/11 05:24:03;;;;;;;9.68;1.70;;;6.90;99.90;;;;;;5053297;28;20025;-72
2023/02/11 05:26:29;;;;;;;2.30;0.30;;;6.90;99.90;;;;;;5057832;28;20425;-73
2023/02/11 05:28:55;;;;;;;9.25;1.02;;;6.90;99.90;;;;;;5073805;28;20030;-73
2023/02/11 05:31:20;;;;;;;2.85;1.77;;;7.00;99.90;;;;;;5073208;28;20036;-72
2023/02/11 05:33:46;;;;;;;7.35;1.75;;;7.00;99.90;;;;;;5073618;28;20033;-73
2023/02/11 05:36:12;;;;;;;25.98;4.07;;;7.00;99.90;;;;;;5073228;28;20024;-73
2023/02/11 05:38:39;;;;;;;0.10;0.10;;;7.00;99.90;;;;;;5071123;28;20016;-72
2023/02/11 05:41:05;;;;;;;7.30;0.63;;;7.10;99.90;;;;;;5073000;28;20024;-73
2023/02/11 05:43:33;;;;;;;2.03;0.90;;;7.10;99.90;;;;;;5073205;28;20052;-73
2023/02/11 05:45:59;;;;;;;2.83;1.35;;;7.20;99.90;;;;;;5073262;28;20372;-73
2023/02/11 05:48:25;;;;;;;5.72;1.27;;;7.20;99.90;;;;;;5073014;28;20013;-73
2023/02/11 05:50:50;;;;;;;2.72;0.43;;;7.20;99.90;;;;;;5073349;28;20036;-73
2023/02/11 05:53:16;;;;;;;2.15;1.00;;;7.20;99.90;;;;;;5073274;28;20078;-72
2023/02/11 05:55:41;;;;;;;3.35;0.63;;;7.30;99.90;;;;;;5073184;28;20032;-73
2023/02/11 05:58:07;;;;;;;7.13;0.57;;;7.20;99.90;;;;;;5066361;28;20032;-73
2023/02/11 06:00:33;;;;;;;17.38;1.85;;;7.30;99.90;;;;;;5052945;28;20029;-73
2023/02/11 06:02:59;;;;;;;0.28;0.20;;;7.30;99.90;;;;;;5064646;28;20020;-72
2023/02/11 06:05:24;;;;;;;1.85;0.80;;;7.30;99.90;;;;;;5072787;28;20035;-73
2023/02/11 06:07:51;;;;;;;41.53;2.92;;;7.30;99.90;;;;;;5073016;28;20096;-73
2023/02/11 06:10:16;;;;;;;0.40;0.40;;;7.30;99.90;;;;;;5073042;28;20082;-73
2023/02/11 06:12:43;;;;;;;2.80;0.85;;;7.30;99.90;;;;;;5073468;28;20028;-73
2023/02/11 06:15:09;;;;;;;0.20;0.20;;;7.30;99.90;;;;;;5072799;28;20462;-73
2023/02/11 06:17:35;;;;;;;3.40;0.45;;;7.30;99.90;;;;;;5066314;28;20032;-73
2023/02/11 06:20:01;;;;;;;0.55;0.55;;;7.30;99.90;;;;;;5052695;28;20021;-72
2023/02/11 06:22:27;;;;;;;5.35;0.60;;;7.30;99.90;;;;;;5052498;28;20116;-73
2023/02/11 06:24:52;;;;;;;6.32;2.17;;;7.40;99.90;;;;;;5051649;28;20062;-73
2023/02/11 06:27:18;;;;;;;6.80;2.38;;;7.30;99.90;;;;;;5052572;28;20040;-73
2023/02/11 06:29:45;;;;;;;7.93;1.73;;;7.30;99.90;;;;;;5052695;28;20522;-73
2023/02/11 06:32:11;;;;;;;9.52;3.47;;;7.30;99.90;;;;;;5052354;28;20033;-73
2023/02/11 06:34:36;;;;;;;3.17;0.73;;;7.30;99.90;;;;;;5052936;28;20356;-73
2023/02/11 06:37:02;;;;;;;22.67;0.95;;;7.40;99.90;;;;;;5052396;28;20032;-72
2023/02/11 06:39:27;;;;;;;3.35;1.52;;;7.30;99.90;;;;;;5052732;28;20526;-73
2023/02/11 06:41:53;;;;;;;7.03;0.85;;;7.40;99.90;;;;;;5052647;28;20021;-73
2023/02/11 06:44:19;;;;;;;0.20;0.20;;;7.30;99.90;;;;;;5052332;28;20529;-73
2023/02/11 06:46:44;;;;;;;5.00;1.33;;;7.30;99.90;;;;;;5052372;28;20029;-73
2023/02/11 06:49:10;;;;;;;0.90;0.90;;;7.30;99.90;;;;;;5052277;28;20478;-73
2023/02/11 06:51:35;;;;;;;10.20;1.70;;;7.30;99.90;;;;;;5055987;28;20025;-73
2023/02/11 06:54:01;;;;;;;0.63;0.63;;;7.30;99.90;;;;;;5056148;28;20123;-73
2023/02/11 06:56:27;;;;;;;23.20;2.50;;;7.30;99.90;;;;;;5054879;28;20021;-73
2023/02/11 06:58:56;;;;;;;6.28;3.60;;;7.40;99.90;;;;;;5055870;28;20025;-73
2023/02/11 07:01:23;;;;;;;34.47;1.30;;;7.30;99.90;;;;;;5055841;28;20053;-73
2023/02/11 07:03:49;;;;;;;4.32;1.17;;;7.40;99.90;;;;;;5057393;28;20024;-73
2023/02/11 07:06:19;;;;;;;11.77;0.85;;;7.40;99.90;;;;;;5056944;28;20048;-72
2023/02/11 07:08:45;;;;;;;5.75;1.88;;;7.30;99.90;;;;;;5054796;28;20025;-73
2023/02/11 07:11:31;;;;;;;1.15;0.38;;;7.30;99.90;;;;;;5055050;28;20037;-72
2023/02/11 07:14:02;;;;;;;15.02;2.58;;;7.40;99.90;;;;;;5035941;28;20104;-73
2023/02/11 07:16:28;;;;;;;2.03;0.85;;;7.30;99.90;;;;;;5050979;28;20394;-73
2023/02/11 07:18:53;;;;;;;7.88;2.30;;;7.40;99.90;;;;;;5035863;28;20029;-73
2023/02/11 07:21:21;;;;;;;9.20;1.45;;;7.40;99.90;;;;;;5035525;28;20033;-73
2023/02/11 07:23:47;;;;;;;4.03;1.45;;;7.40;99.90;;;;;;5043808;28;20021;-73
2023/02/11 07:26:17;;;;;;;7.03;2.03;;;7.30;99.90;;;;;;5055540;28;20021;-72
2023/02/11 07:28:43;;;;;;;1.00;0.50;;;7.30;99.90;;;;;;5055390;28;20021;-73
2023/02/11 07:31:32;;;;;;;2.05;0.45;;;7.30;99.90;;;;;;5055295;28;20450;-73
2023/02/11 07:34:00;;;;;;;4.75;1.27;;;7.30;99.90;;;;;;5055155;28;20082;-74
2023/02/11 07:36:27;;;;;;;1.00;0.50;;;7.30;99.90;;;;;;5055298;28;20021;-73
2023/02/11 07:38:53;;;;;;;2.63;1.08;;;7.20;99.90;;;;;;5054771;28;20493;-74
2023/02/11 07:41:21;;;;;;;1.48;0.75;;;7.20;99.90;;;;;;5055189;28;20099;-72
2023/02/11 07:43:47;;;;;;;0.20;0.20;;;7.30;99.90;;;;;;5055079;28;20036;-73
2023/02/11 07:46:21;;;;;;;1.00;0.40;;;7.30;99.90;;;;;;5055267;28;20099;-72
2023/02/11 07:48:47;;;;;;;0.20;0.20;;;7.30;99.90;;;;;;5054813;28;20023;-72
2023/02/11 07:51:16;;;;;;;10.63;3.50;;;7.30;99.90;;;;;;5055014;28;20437;-72
2023/02/11 07:53:42;;;;;;;1.35;1.10;;;7.30;99.90;;;;;;5054717;28;20367;-72
2023/02/11 07:56:08;;;;;;;15.98;1.92;;;7.30;99.90;;;;;;5055074;28;20467;-72
2023/02/11 07:58:34;;;;;;;6.13;1.45;;;7.30;99.90;;;;;;5053389;28;20028;-72
2023/02/11 08:01:05;;;;;;;0.20;0.20;;;7.30;99.90;;;;;;5053424;28;20383;-72
2023/02/11 08:03:32;;;;;;;7.57;3.97;;;7.30;99.90;;;;;;5054526;28;20033;-72
2023/02/11 08:05:57;;;;;;;3.97;1.08;;;7.30;99.90;;;;;;5054423;28;20040;-72
2023/02/11 08:08:25;;;;;;;49.83;5.00;;;7.30;99.90;;;;;;5054365;28;20478;-72
2023/02/11 08:10:51;;;;;;;0.10;0.10;;;7.40;99.90;;;;;;5054230;28;20108;-72
2023/02/11 08:13:16;;;;;;;16.08;1.95;;;7.40;99.90;;;;;;5054746;28;20067;-72
2023/02/11 08:15:42;;;;;;;2.80;0.82;;;7.40;99.90;;;;;;5054797;28;20025;-73
2023/02/11 08:18:07;;;;;;;5.22;1.60;;;7.50;99.90;;;;;;5054228;28;20040;-73
2023/02/11 08:20:33;;;;;;;12.18;2.17;;;7.50;99.90;;;;;;5054472;28;20104;-72
2023/02/11 08:22:58;;;;;;;0.28;0.28;;;7.50;99.90;;;;;;5053981;28;20479;-73
2023/02/11 08:25:24;;;;;;;3.63;0.90;;;7.50;99.90;;;;;;5054555;28;20031;-72
2023/02/11 08:27:49;;;;;;;0.45;0.45;;;7.50;99.90;;;;;;5054096;28;20428;-72
2023/02/11 08:30:15;;;;;;;8.85;0.40;;;7.50;99.90;;;;;;5053912;28;20025;-73
2023/02/11 08:32:40;;;;;;;0.20;0.20;;;7.50;99.90;;;;;;5054418;28;20025;-73
2023/02/11 08:35:06;;;;;;;8.95;5.00;;;7.50;99.90;;;;;;5054098;28;20032;-71
2023/02/11 08:37:32;;;;;;;0.17;0.17;;;7.40;99.90;;;;;;5053996;28;20025;-72
2023/02/11 08:39:58;;;;;;;1.77;0.95;;;7.40;99.90;;;;;;5053808;28;20139;-71
2023/02/11 08:42:23;;;;;;;0.57;0.57;;;7.40;99.90;;;;;;5053913;28;20446;-72
2023/02/11 08:44:49;;;;;;;0.10;0.10;;;7.40;99.90;;;;;;5053897;28;20040;-72
2023/02/11 08:47:14;;;;;;;0.50;0.40;;;7.40;99.90;;;;;;5054037;28;20032;-73
2023/02/11 08:49:41;;;;;;;0.10;0.10;;;7.40;99.90;;;;;;5053569;28;20392;-73
2023/02/11 08:52:07;;;;;;;0.22;0.22;;;7.40;99.90;;;;;;5053323;28;20028;-73
2023/02/11 08:54:32;;;;;;;12.88;0.85;;;7.40;99.90;;;;;;5053454;28;20037;-73
2023/02/11 08:59:33;;;;;;;24.23;1.95;;;7.40;99.90;;;;;;5352889;22;20425;-70
2023/02/11 09:01:59;;;;;;;7.68;5.30;;;7.40;99.90;;;;;;5054079;28;20018;-70
2023/02/11 09:04:24;;;;;;;16.35;10.60;;;7.40;99.90;;;;;;5053782;28;20033;-70
2023/02/11 09:06:50;;;;;;;3.20;0.40;;;7.40;99.90;;;;;;5053412;28;20441;-71
2023/02/11 09:09:16;;;;;;;3.25;1.00;;;7.40;99.90;;;;;;5053610;28;20502;-71
2023/02/11 09:11:43;;;;;;;5.40;1.42;;;7.40;99.90;;;;;;5053856;28;20029;-73
2023/02/11 09:14:17;;;;;;;14.05;1.67;;;7.40;99.90;;;;;;5053569;28;20112;-73
2023/02/11 09:16:42;;;;;;;;;;;7.40;99.90;;;;;;5054008;28;20025;-73
2023/02/11 09:19:08;;;;;;;14.10;2.72;;;7.40;99.90;;;;;;5053387;28;19905;-73
2023/02/11 09:21:34;;;;;;;1.88;0.45;;;7.40;99.90;;;;;;5053485;28;20028;-73
2023/02/11 09:24:00;;;;;;;4.60;1.52;;;7.40;99.90;;;;;;5053736;28;20025;-73
2023/02/11 09:26:30;;;;;;;0.30;0.30;;;7.50;99.90;;;;;;5053449;28;20025;-73
2023/02/11 09:28:56;;;;;;;15.95;1.48;;;7.50;99.90;;;;;;5053640;28;20021;-73
2023/02/11 09:31:25;;;;;;;0.55;0.55;;;7.60;99.90;;;;;;5053372;28;20021;-73
2023/02/11 09:33:54;;;;;;;3.83;0.40;;;7.60;99.90;;;;;;5053259;28;20498;-73
2023/02/11 09:36:22;;;;;;;7.93;1.27;;;7.70;99.90;;;;;;5053305;28;20463;-73
2023/02/11 09:38:48;;;;;;;0.10;0.10;;;7.70;99.90;;;;;;5068678;28;20036;-73
2023/02/11 09:41:40;;;;;;;10.05;0.52;;;7.70;99.90;;;;;;5052167;28;20051;-73
2023/02/11 09:44:09;;;;;;;44.28;2.85;;;7.80;99.90;;;;;;5052628;28;20068;-73
2023/02/11 09:46:40;;;;;;;17.40;2.78;;;7.90;99.90;;;;;;5053183;28;20024;-73
2023/02/11 09:49:18;;;;;;;7.25;2.80;;;7.90;99.90;;;;;;5053279;28;20021;-74
2023/02/11 09:51:48;;;;;;;24.42;3.45;;;7.90;99.90;;;;;;5044915;28;20037;-73
2023/02/11 09:54:27;;;;;;;3.10;1.10;;;7.90;99.90;;;;;;5033408;28;20036;-73
2023/02/11 09:56:52;;;;;;;8.45;1.27;;;7.90;99.90;;;;;;5033422;28;20022;-73
2023/02/11 09:59:19;;;;;;;8.73;1.95;;;8.00;99.90;;;;;;5033163;28;20506;-73
2023/02/11 10:01:55;;;;;;;2.08;0.35;;;8.00;99.90;;;;;;5033505;28;20017;-73
2023/02/11 10:04:47;;;;;;;0.45;0.40;;;8.00;99.90;;;;;;5033914;28;20021;-72
2023/02/11 10:07:36;;;;;;;21.05;3.88;;;8.00;99.90;;;;;;5040795;28;20021;-73
2023/02/11 10:10:24;;;;;;;45.22;3.40;;;8.10;99.90;;;;;;5031935;28;20116;-73
2023/02/11 10:13:32;;;;;;;16.60;1.25;;;8.10;99.90;;;;;;5040981;28;20087;-72
2023/02/11 10:16:23;;;;;;;28.65;1.35;;;8.10;99.90;;;;;;5049211;28;20024;-73
2023/02/11 10:19:24;;;;;;;0.70;0.68;;;8.20;99.90;;;;;;5051757;28;20022;-73
2023/02/11 10:22:25;;;;;;;6.07;1.90;;;8.10;99.90;;;;;;5050580;28;20032;-73
2023/02/11 10:24:59;;;;;;;11.75;1.08;;;8.10;99.90;;;;;;5037906;28;20107;-72
2023/02/11 10:27:32;;;;;;;0.30;0.30;;;8.10;99.90;;;;;;5051575;28;20033;-72
2023/02/11 10:30:15;;;;;;;1.67;1.10;;;8.20;99.90;;;;;;5056113;28;20437;-72
2023/02/11 10:32:49;;;;;;;2.00;1.85;;;8.20;99.90;;;;;;5041643;28;20035;-73
2023/02/11 10:35:17;;;;;;;11.52;0.68;;;8.20;99.90;;;;;;5036599;28;20025;-73
2023/02/11 10:37:47;;;;;;;3.10;1.48;;;8.20;99.90;;;;;;5045884;28;20049;-72
2023/02/11 10:40:16;;;;;;;0.20;0.20;;;8.20;99.90;;;;;;5055735;28;20093;-73
2023/02/11 10:42:47;;;;;;;10.27;1.73;;;8.20;99.90;;;;;;5053447;28;20028;-72
2023/02/11 10:45:21;;;;;;;5.65;1.55;;;8.10;99.90;;;;;;5056248;28;20098;-72
2023/02/11 10:47:47;;;;;;;14.55;4.20;;;8.10;99.90;;;;;;5055941;28;20032;-72
2023/02/11 10:50:23;;;;;;;6.88;1.13;;;8.10;99.90;;;;;;5056122;28;20385;-72
2023/02/11 10:52:48;;;;;;;3.83;1.52;;;8.10;99.90;;;;;;5052532;28;20115;-72
2023/02/11 10:55:22;;;;;;;0.10;0.10;;;8.10;99.90;;;;;;5056005;28;20440;-72
2023/02/11 10:57:59;;;;;;;0.20;0.20;;;8.20;99.90;;;;;;5055591;28;20021;-72
2023/02/11 11:00:42;;;;;;;1.35;0.65;;;8.20;99.90;;;;;;5055748;28;20028;-73
2023/02/11 11:03:19;;;;;;;1.58;1.48;;;8.20;99.90;;;;;;5039717;28;20020;-72
2023/02/11 11:05:52;;;;;;;1.55;0.73;;;8.20;99.90;;;;;;5035878;28;20083;-72
2023/02/11 11:08:18;;;;;;;5.95;2.22;;;8.10;99.90;;;;;;5035905;28;20497;-72
2023/02/11 11:10:45;;;;;;;7.78;2.70;;;8.10;99.90;;;;;;5036271;28;20021;-72
2023/02/11 11:13:23;;;;;;;49.13;4.30;;;8.10;99.90;;;;;;5041682;28;20104;-73
2023/02/11 11:16:05;;;;;;;7.97;1.25;;;8.00;99.90;;;;;;5070892;28;20036;-73
2023/02/11 11:18:31;;;;;;;2.72;1.75;;;8.10;99.90;;;;;;5055598;28;20104;-73
2023/02/11 11:21:04;;;;;;;3.03;0.50;;;8.10;99.90;;;;;;5054275;28;20060;-73
2023/02/11 11:23:30;;;;;;;6.97;2.67;;;8.20;99.90;;;;;;5037375;28;20083;-73
2023/02/11 11:26:20;;;;;;;0.13;0.13;;;8.20;99.90;;;;;;5035966;28;20461;-72
2023/02/11 11:28:45;;;;;;;2.03;1.45;;;8.30;99.90;;;;;;5053479;28;20115;-73
2023/02/11 11:31:15;;;;;;;0.52;0.35;;;8.30;99.90;;;;;;5054963;28;20071;-72
2023/02/11 11:33:43;;;;;;;6.82;1.85;;;8.30;99.90;;;;;;5039659;28;20049;-73
2023/02/11 11:36:12;;;;;;;4.60;3.00;;;8.30;99.90;;;;;;5054075;28;20474;-72
2023/02/11 11:38:47;;;;;;;0.38;0.38;;;8.30;99.90;;;;;;5054841;28;20383;-73
2023/02/11 11:41:33;;;;;;;0.30;0.30;;;8.30;99.90;;;;;;5054898;28;20370;-72
2023/02/11 11:44:01;;;;;;;0.20;0.20;;;8.40;99.90;;;;;;5055239;28;20052;-73
2023/02/11 11:46:41;;;;;;;0.13;0.13;;;8.40;99.90;;;;;;5054996;28;20078;-73
2023/02/11 11:49:19;;;;;;;23.48;1.70;;;8.40;99.90;;;;;;5054779;28;20551;-73
2023/02/11 11:51:55;;;;;;;0.20;0.20;;;8.50;99.90;;;;;;5051852;28;20021;-72
2023/02/11 11:54:23;;;;;;;4.20;1.15;;;8.50;99.90;;;;;;5054711;28;20072;-73
2023/02/11 11:57:15;;;;;;;0.20;0.20;;;8.50;99.90;;;;;;5055097;28;20033;-73
2023/02/11 11:59:40;;;;;;;26.23;0.73;;;8.50;99.90;;;;;;5054449;28;20036;-73
2023/02/11 12:02:41;;;;;;;2.30;1.63;;;8.50;99.90;;;;;;5048618;28;20483;-73
2023/02/11 12:05:26;;;;;;;1.45;0.85;;;8.60;99.90;;;;;;5034630;28;20057;-73
2023/02/11 12:08:10;;;;;;;0.25;0.25;;;8.60;99.90;;;;;;5034761;28;20036;-73
2023/02/11 12:11:02;;;;;;;4.63;4.18;;;8.60;99.90;;;;;;5034761;28;20025;-72
2023/02/11 12:13:33;;;;;;;0.60;0.60;;;8.60;99.90;;;;;;5050875;28;20091;-73
2023/02/11 12:16:12;;;;;;;5.93;2.67;;;8.60;99.90;;;;;;5054700;28;20116;-73
2023/02/11 12:18:49;;;;;;;0.38;0.38;;;8.60;99.90;;;;;;5054405;28;20025;-73
2023/02/11 12:21:44;;;;;;;25.15;3.28;;;8.60;99.90;;;;;;5054192;28;20105;-72
2023/02/11 12:24:40;;;;;;;7.68;1.60;;;8.60;99.90;;;;;;5034730;28;20029;-73
2023/02/11 12:27:39;;;;;;;29.58;3.00;;;8.60;99.90;;;;;;5036420;28;20082;-73
2023/02/11 12:30:26;;;;;;;1.05;0.43;;;8.60;99.90;;;;;;5054415;28;20445;-73
2023/02/11 12:33:04;;;;;;;18.42;6.85;;;8.70;99.90;;;;;;5052169;28;20025;-73
2023/02/11 12:35:53;;;;;;;9.60;0.85;;;8.70;99.90;;;;;;5054156;28;20075;-72
2023/02/11 12:38:28;;;;;;;4.95;1.10;;;8.70;99.90;;;;;;5054153;28;20046;-73
2023/02/11 12:41:09;;;;;;;6.45;0.75;;;8.70;99.90;;;;;;5034242;28;20018;-73
2023/02/11 12:43:40;;;;;;;6.78;0.80;;;8.70;99.90;;;;;;5033941;28;20026;-73
2023/02/11 12:46:24;;;;;;;4.90;1.08;;;8.70;99.90;;;;;;5034216;28;20025;-73
2023/02/11 12:49:01;;;;;;;5.03;0.55;;;8.80;99.90;;;;;;5069574;28;20508;-73
2023/02/11 12:51:56;;;;;;;3.72;1.52;;;8.80;99.90;;;;;;5073576;28;20036;-72
2023/02/11 12:54:25;;;;;;;9.35;1.05;;;8.70;99.90;;;;;;5034045;28;20036;-73
2023/02/11 12:57:02;;;;;;;1.23;0.35;;;8.70;99.90;;;;;;5034941;28;20083;-73
2023/02/11 13:00:00;;;;;;;6.75;1.13;;;8.70;99.90;;;;;;5053899;28;20491;-73
2023/02/11 13:02:40;;;;;;;5.65;1.15;;;8.80;99.90;;;;;;5029076;28;20033;-73
2023/02/11 13:05:28;;;;;;;0.95;0.90;;;8.70;99.90;;;;;;5033908;28;20021;-73
2023/02/11 13:08:03;;;;;;;0.43;0.43;;;8.70;99.90;;;;;;5033543;28;20018;-73
2023/02/11 13:10:35;;;;;;;0.95;0.95;;;8.70;99.90;;;;;;5033692;28;20025;-73
2023/02/11 13:13:29;;;;;;;3.53;0.65;;;8.70;99.90;;;;;;5044305;28;20035;-73
2023/02/11 13:16:04;;;;;;;;;;;8.70;99.90;;;;;;5050675;28;20402;-73
2023/02/11 13:18:53;;;;;;;4.90;0.77;;;8.80;99.90;;;;;;5053444;28;20394;-73
2023/02/11 13:21:37;;;;;;;0.40;0.40;;;8.80;99.90;;;;;;5053087;28;20036;-72
2023/02/11 13:24:16;;;;;;;34.67;1.58;;;8.70;99.90;;;;;;5052755;28;20033;-74